sensor_id;sensor_type;location;lat;lon;timestamp;P1;durP1;ratioP1;P2;durP2;ratioP2
15181;SDS011;7692;50.602;8.692;2024-02-16T00:02:45;1.30;;;1.30;;
15181;SDS011;7692;50.602;8.692;2024-02-16T00:05:20;1.40;;;1.40;;
15181;SDS011;7692;50.602;8.692;2024-02-16T00:08:16;1.20;;;1.20;;
15181;SDS011;7692;50.602;8.692;2024-02-16T00:10:51;1.30;;;1.30;;
15181;SDS011;7692;50.602;8.692;2024-02-16T00:13:47;1.23;;;1.23;;
15181;SDS011;7692;50.602;8.692;2024-02-16T00:16:30;1.20;;;1.20;;
15181;SDS011;7692;50.602;8.692;2024-02-16T00:19:19;1.40;;;1.40;;
15181;SDS011;7692;50.602;8.692;2024-02-16T00:22:01;1.40;;;1.40;;
15181;SDS011;7692;50.602;8.692;2024-02-16T00:24:50;1.20;;;1.20;;
15181;SDS011;7692;50.602;8.692;2024-02-16T00:27:32;1.30;;;1.30;;
15181;SDS011;7692;50.602;8.692;2024-02-16T00:30:31;1.40;;;1.40;;
15181;SDS011;7692;50.602;8.692;2024-02-16T00:33:07;1.10;;;1.10;;
15181;SDS011;7692;50.602;8.692;2024-02-16T00:36:05;1.20;;;1.20;;
15181;SDS011;7692;50.602;8.692;2024-02-16T00:38:40;1.20;;;1.20;;
15181;SDS011;7692;50.602;8.692;2024-02-16T00:41:36;1.40;;;1.40;;
15181;SDS011;7692;50.602;8.692;2024-02-16T00:44:18;1.20;;;1.20;;
15181;SDS011;7692;50.602;8.692;2024-02-16T00:47:07;1.30;;;1.30;;
15181;SDS011;7692;50.602;8.692;2024-02-16T00:50:05;1.50;;;1.50;;
15181;SDS011;7692;50.602;8.692;2024-02-16T00:52:49;1.40;;;1.40;;
15181;SDS011;7692;50.602;8.692;2024-02-16T00:55:44;1.40;;;1.40;;
15181;SDS011;7692;50.602;8.692;2024-02-16T00:58:26;1.40;;;1.40;;
15181;SDS011;7692;50.602;8.692;2024-02-16T01:01:15;1.40;;;1.40;;
15181;SDS011;7692;50.602;8.692;2024-02-16T01:03:57;1.40;;;1.40;;
15181;SDS011;7692;50.602;8.692;2024-02-16T01:06:48;1.40;;;1.40;;
15181;SDS011;7692;50.602;8.692;2024-02-16T01:09:30;1.40;;;1.40;;
15181;SDS011;7692;50.602;8.692;2024-02-16T01:12:26;1.40;;;1.40;;
15181;SDS011;7692;50.602;8.692;2024-02-16T01:15:10;1.43;;;1.43;;
15181;SDS011;7692;50.602;8.692;2024-02-16T01:18:06;1.40;;;1.40;;
15181;SDS011;7692;50.602;8.692;2024-02-16T01:20:41;1.40;;;1.40;;
15181;SDS011;7692;50.602;8.692;2024-02-16T01:23:38;1.30;;;1.30;;
15181;SDS011;7692;50.602;8.692;2024-02-16T01:26:20;1.30;;;1.30;;
15181;SDS011;7692;50.602;8.692;2024-02-16T01:29:16;1.50;;;1.50;;
15181;SDS011;7692;50.602;8.692;2024-02-16T01:31:58;1.30;;;1.30;;
15181;SDS011;7692;50.602;8.692;2024-02-16T01:34:47;1.30;;;1.30;;
15181;SDS011;7692;50.602;8.692;2024-02-16T01:37:29;1.40;;;1.40;;
15181;SDS011;7692;50.602;8.692;2024-02-16T01:40:28;1.40;;;1.40;;
15181;SDS011;7692;50.602;8.692;2024-02-16T01:43:10;1.40;;;1.40;;
15181;SDS011;7692;50.602;8.692;2024-02-16T01:46:06;1.43;;;1.43;;
15181;SDS011;7692;50.602;8.692;2024-02-16T01:48:41;1.30;;;1.30;;
15181;SDS011;7692;50.602;8.692;2024-02-16T01:51:38;1.50;;;1.50;;
15181;SDS011;7692;50.602;8.692;2024-02-16T01:54:20;1.40;;;1.40;;
15181;SDS011;7692;50.602;8.692;2024-02-16T01:57:03;1.30;;;1.30;;
15181;SDS011;7692;50.602;8.692;2024-02-16T02:00:01;1.50;;;1.50;;
15181;SDS011;7692;50.602;8.692;2024-02-16T02:02:38;1.50;;;1.50;;
15181;SDS011;7692;50.602;8.692;2024-02-16T02:05:34;1.10;;;1.10;;
15181;SDS011;7692;50.602;8.692;2024-02-16T02:08:16;1.70;;;1.70;;
15181;SDS011;7692;50.602;8.692;2024-02-16T02:11:14;1.30;;;1.30;;
15181;SDS011;7692;50.602;8.692;2024-02-16T02:13:57;1.40;;;1.40;;
15181;SDS011;7692;50.602;8.692;2024-02-16T02:16:46;1.20;;;1.20;;
15181;SDS011;7692;50.602;8.692;2024-02-16T02:19:31;1.50;;;1.50;;
15181;SDS011;7692;50.602;8.692;2024-02-16T02:22:28;1.40;;;1.40;;
15181;SDS011;7692;50.602;8.692;2024-02-16T02:25:10;1.30;;;1.30;;
15181;SDS011;7692;50.602;8.692;2024-02-16T02:28:06;1.40;;;1.40;;
15181;SDS011;7692;50.602;8.692;2024-02-16T02:30:42;1.37;;;1.37;;
15181;SDS011;7692;50.602;8.692;2024-02-16T02:33:38;1.30;;;1.30;;
15181;SDS011;7692;50.602;8.692;2024-02-16T02:36:16;1.30;;;1.30;;
15181;SDS011;7692;50.602;8.692;2024-02-16T02:39:12;1.40;;;1.40;;
15181;SDS011;7692;50.602;8.692;2024-02-16T02:42:08;1.40;;;1.40;;
15181;SDS011;7692;50.602;8.692;2024-02-16T02:44:43;1.40;;;1.40;;
15181;SDS011;7692;50.602;8.692;2024-02-16T02:47:39;1.20;;;1.20;;
15181;SDS011;7692;50.602;8.692;2024-02-16T02:50:14;1.40;;;1.40;;
15181;SDS011;7692;50.602;8.692;2024-02-16T02:53:10;1.60;;;1.60;;
15181;SDS011;7692;50.602;8.692;2024-02-16T02:55:53;1.20;;;1.20;;
15181;SDS011;7692;50.602;8.692;2024-02-16T02:58:42;1.40;;;1.40;;
15181;SDS011;7692;50.602;8.692;2024-02-16T03:01:24;1.47;;;1.47;;
15181;SDS011;7692;50.602;8.692;2024-02-16T03:04:13;1.30;;;1.30;;
15181;SDS011;7692;50.602;8.692;2024-02-16T03:06:55;1.40;;;1.40;;
15181;SDS011;7692;50.602;8.692;2024-02-16T03:09:44;1.70;;;1.70;;
15181;SDS011;7692;50.602;8.692;2024-02-16T03:12:34;1.30;;;1.30;;
15181;SDS011;7692;50.602;8.692;2024-02-16T03:15:16;1.50;;;1.50;;
15181;SDS011;7692;50.602;8.692;2024-02-16T03:18:05;1.30;;;1.30;;
15181;SDS011;7692;50.602;8.692;2024-02-16T03:20:48;1.40;;;1.40;;
15181;SDS011;7692;50.602;8.692;2024-02-16T03:23:30;1.40;;;1.40;;
15181;SDS011;7692;50.602;8.692;2024-02-16T03:26:19;1.30;;;1.30;;
15181;SDS011;7692;50.602;8.692;2024-02-16T03:29:03;1.20;;;1.20;;
15181;SDS011;7692;50.602;8.692;2024-02-16T03:31:52;1.40;;;1.40;;
15181;SDS011;7692;50.602;8.692;2024-02-16T03:34:34;1.37;;;1.37;;
15181;SDS011;7692;50.602;8.692;2024-02-16T03:37:23;1.10;;;1.10;;
15181;SDS011;7692;50.602;8.692;2024-02-16T03:40:28;1.30;;;1.30;;
15181;SDS011;7692;50.602;8.692;2024-02-16T03:43:10;1.30;;;1.30;;
15181;SDS011;7692;50.602;8.692;2024-02-16T03:46:00;1.30;;;1.30;;
15181;SDS011;7692;50.602;8.692;2024-02-16T03:48:43;1.30;;;1.30;;
15181;SDS011;7692;50.602;8.692;2024-02-16T03:51:32;1.23;;;1.23;;
15181;SDS011;7692;50.602;8.692;2024-02-16T03:54:14;1.40;;;1.40;;
15181;SDS011;7692;50.602;8.692;2024-02-16T03:57:10;1.30;;;1.30;;
15181;SDS011;7692;50.602;8.692;2024-02-16T03:59:45;1.30;;;1.30;;
15181;SDS011;7692;50.602;8.692;2024-02-16T04:02:48;1.30;;;1.30;;
15181;SDS011;7692;50.602;8.692;2024-02-16T04:05:23;1.40;;;1.40;;
15181;SDS011;7692;50.602;8.692;2024-02-16T04:08:20;1.30;;;1.30;;
15181;SDS011;7692;50.602;8.692;2024-02-16T04:11:02;1.20;;;1.20;;
15181;SDS011;7692;50.602;8.692;2024-02-16T04:13:51;1.40;;;1.40;;
15181;SDS011;7692;50.602;8.692;2024-02-16T04:16:33;1.30;;;1.30;;
15181;SDS011;7692;50.602;8.692;2024-02-16T04:19:24;1.30;;;1.30;;
15181;SDS011;7692;50.602;8.692;2024-02-16T04:22:05;1.30;;;1.30;;
15181;SDS011;7692;50.602;8.692;2024-02-16T04:25:01;1.30;;;1.30;;
15181;SDS011;7692;50.602;8.692;2024-02-16T04:27:43;1.40;;;1.40;;
15181;SDS011;7692;50.602;8.692;2024-02-16T04:30:39;1.30;;;1.30;;
15181;SDS011;7692;50.602;8.692;2024-02-16T04:33:14;1.40;;;1.40;;
15181;SDS011;7692;50.602;8.692;2024-02-16T04:36:11;1.40;;;1.40;;
15181;SDS011;7692;50.602;8.692;2024-02-16T04:38:48;1.40;;;1.40;;
15181;SDS011;7692;50.602;8.692;2024-02-16T04:41:44;1.37;;;1.37;;
15181;SDS011;7692;50.602;8.692;2024-02-16T04:44:26;1.30;;;1.30;;
15181;SDS011;7692;50.602;8.692;2024-02-16T04:47:22;1.53;;;1.53;;
15181;SDS011;7692;50.602;8.692;2024-02-16T04:50:04;1.30;;;1.30;;
15181;SDS011;7692;50.602;8.692;2024-02-16T04:52:54;1.30;;;1.30;;
15181;SDS011;7692;50.602;8.692;2024-02-16T04:55:36;1.17;;;1.17;;
15181;SDS011;7692;50.602;8.692;2024-02-16T04:58:32;1.30;;;1.30;;
15181;SDS011;7692;50.602;8.692;2024-02-16T05:01:07;1.30;;;1.30;;
15181;SDS011;7692;50.602;8.692;2024-02-16T05:04:03;1.30;;;1.30;;
15181;SDS011;7692;50.602;8.692;2024-02-16T05:06:39;1.50;;;1.50;;
15181;SDS011;7692;50.602;8.692;2024-02-16T05:09:36;1.20;;;1.20;;
15181;SDS011;7692;50.602;8.692;2024-02-16T05:12:19;1.30;;;1.30;;
15181;SDS011;7692;50.602;8.692;2024-02-16T05:15:16;1.30;;;1.30;;
15181;SDS011;7692;50.602;8.692;2024-02-16T05:17:58;1.20;;;1.20;;
15181;SDS011;7692;50.602;8.692;2024-02-16T05:20:47;1.20;;;1.20;;
15181;SDS011;7692;50.602;8.692;2024-02-16T05:23:29;1.30;;;1.30;;
15181;SDS011;7692;50.602;8.692;2024-02-16T05:26:19;1.30;;;1.30;;
15181;SDS011;7692;50.602;8.692;2024-02-16T05:29:01;1.30;;;1.30;;
15181;SDS011;7692;50.602;8.692;2024-02-16T05:31:57;1.30;;;1.30;;
15181;SDS011;7692;50.602;8.692;2024-02-16T05:34:32;1.30;;;1.30;;
15181;SDS011;7692;50.602;8.692;2024-02-16T05:37:29;1.10;;;1.10;;
15181;SDS011;7692;50.602;8.692;2024-02-16T05:40:24;1.27;;;1.27;;
15181;SDS011;7692;50.602;8.692;2024-02-16T05:43:08;1.30;;;1.30;;
15181;SDS011;7692;50.602;8.692;2024-02-16T05:46:04;1.20;;;1.20;;
15181;SDS011;7692;50.602;8.692;2024-02-16T05:48:39;1.10;;;1.10;;
15181;SDS011;7692;50.602;8.692;2024-02-16T05:51:35;1.30;;;1.30;;
15181;SDS011;7692;50.602;8.692;2024-02-16T05:54:10;1.30;;;1.30;;
15181;SDS011;7692;50.602;8.692;2024-02-16T05:57:06;1.10;;;1.10;;
15181;SDS011;7692;50.602;8.692;2024-02-16T05:59:49;1.30;;;1.30;;
15181;SDS011;7692;50.602;8.692;2024-02-16T06:02:40;1.30;;;1.30;;
15181;SDS011;7692;50.602;8.692;2024-02-16T06:05:22;1.30;;;1.30;;
15181;SDS011;7692;50.602;8.692;2024-02-16T06:08:13;1.30;;;1.30;;
15181;SDS011;7692;50.602;8.692;2024-02-16T06:10:55;1.40;;;1.40;;
15181;SDS011;7692;50.602;8.692;2024-02-16T06:13:51;1.27;;;1.27;;
15181;SDS011;7692;50.602;8.692;2024-02-16T06:16:34;1.10;;;1.10;;
15181;SDS011;7692;50.602;8.692;2024-02-16T06:19:30;1.40;;;1.40;;
15181;SDS011;7692;50.602;8.692;2024-02-16T06:22:05;1.30;;;1.30;;
15181;SDS011;7692;50.602;8.692;2024-02-16T06:25:01;1.20;;;1.20;;
15181;SDS011;7692;50.602;8.692;2024-02-16T06:27:43;1.30;;;1.30;;
15181;SDS011;7692;50.602;8.692;2024-02-16T06:30:32;1.40;;;1.40;;
15181;SDS011;7692;50.602;8.692;2024-02-16T06:33:15;1.30;;;1.30;;
15181;SDS011;7692;50.602;8.692;2024-02-16T06:36:04;1.50;;;1.50;;
15181;SDS011;7692;50.602;8.692;2024-02-16T06:38:53;1.30;;;1.30;;
15181;SDS011;7692;50.602;8.692;2024-02-16T06:41:34;1.50;;;1.50;;
15181;SDS011;7692;50.602;8.692;2024-02-16T06:44:23;1.03;;;1.03;;
15181;SDS011;7692;50.602;8.692;2024-02-16T06:47:05;1.30;;;1.30;;
15181;SDS011;7692;50.602;8.692;2024-02-16T06:49:55;1.20;;;1.20;;
15181;SDS011;7692;50.602;8.692;2024-02-16T06:52:37;1.20;;;1.20;;
15181;SDS011;7692;50.602;8.692;2024-02-16T06:55:26;1.20;;;1.20;;
15181;SDS011;7692;50.602;8.692;2024-02-16T06:58:08;1.23;;;1.23;;
15181;SDS011;7692;50.602;8.692;2024-02-16T07:01:04;1.30;;;1.30;;
15181;SDS011;7692;50.602;8.692;2024-02-16T07:03:47;1.20;;;1.20;;
15181;SDS011;7692;50.602;8.692;2024-02-16T07:06:44;1.40;;;1.40;;
15181;SDS011;7692;50.602;8.692;2024-02-16T07:09:19;1.40;;;1.40;;
15181;SDS011;7692;50.602;8.692;2024-02-16T07:12:15;1.30;;;1.30;;
15181;SDS011;7692;50.602;8.692;2024-02-16T07:14:50;1.40;;;1.40;;
15181;SDS011;7692;50.602;8.692;2024-02-16T07:17:46;1.40;;;1.40;;
15181;SDS011;7692;50.602;8.692;2024-02-16T07:20:28;1.23;;;1.23;;
15181;SDS011;7692;50.602;8.692;2024-02-16T07:23:18;1.30;;;1.30;;
15181;SDS011;7692;50.602;8.692;2024-02-16T07:26:00;1.30;;;1.30;;
15181;SDS011;7692;50.602;8.692;2024-02-16T07:28:49;1.30;;;1.30;;
15181;SDS011;7692;50.602;8.692;2024-02-16T07:31:32;1.20;;;1.20;;
15181;SDS011;7692;50.602;8.692;2024-02-16T07:34:28;1.30;;;1.30;;
15181;SDS011;7692;50.602;8.692;2024-02-16T07:37:03;1.30;;;1.30;;
15181;SDS011;7692;50.602;8.692;2024-02-16T07:40:09;1.30;;;1.30;;
15181;SDS011;7692;50.602;8.692;2024-02-16T07:42:51;1.37;;;1.37;;
15181;SDS011;7692;50.602;8.692;2024-02-16T07:45:40;1.10;;;1.10;;
15181;SDS011;7692;50.602;8.692;2024-02-16T07:48:22;1.30;;;1.30;;
15181;SDS011;7692;50.602;8.692;2024-02-16T07:51:11;1.27;;;1.27;;
15181;SDS011;7692;50.602;8.692;2024-02-16T07:53:53;1.20;;;1.20;;
15181;SDS011;7692;50.602;8.692;2024-02-16T07:56:42;1.10;;;1.10;;
15181;SDS011;7692;50.602;8.692;2024-02-16T07:59:25;1.20;;;1.20;;
15181;SDS011;7692;50.602;8.692;2024-02-16T08:02:13;1.00;;;1.00;;
15181;SDS011;7692;50.602;8.692;2024-02-16T08:04:57;1.20;;;1.20;;
15181;SDS011;7692;50.602;8.692;2024-02-16T08:07:54;1.10;;;1.10;;
15181;SDS011;7692;50.602;8.692;2024-02-16T08:10:29;1.30;;;1.30;;
15181;SDS011;7692;50.602;8.692;2024-02-16T08:13:25;1.30;;;1.30;;
15181;SDS011;7692;50.602;8.692;2024-02-16T08:16:02;1.10;;;1.10;;
15181;SDS011;7692;50.602;8.692;2024-02-16T08:18:58;1.20;;;1.20;;
15181;SDS011;7692;50.602;8.692;2024-02-16T08:21:39;1.20;;;1.20;;
15181;SDS011;7692;50.602;8.692;2024-02-16T08:24:27;1.17;;;1.17;;
15181;SDS011;7692;50.602;8.692;2024-02-16T08:27:12;1.20;;;1.20;;
15181;SDS011;7692;50.602;8.692;2024-02-16T08:30:01;1.20;;;1.20;;
15181;SDS011;7692;50.602;8.692;2024-02-16T08:32:43;1.10;;;1.10;;
15181;SDS011;7692;50.602;8.692;2024-02-16T08:35:35;1.20;;;1.20;;
15181;SDS011;7692;50.602;8.692;2024-02-16T08:38:17;1.10;;;1.10;;
15181;SDS011;7692;50.602;8.692;2024-02-16T08:41:12;1.20;;;1.20;;
15181;SDS011;7692;50.602;8.692;2024-02-16T08:43:46;1.10;;;1.10;;
15181;SDS011;7692;50.602;8.692;2024-02-16T08:46:42;1.10;;;1.10;;
15181;SDS011;7692;50.602;8.692;2024-02-16T08:49:17;1.10;;;1.10;;
15181;SDS011;7692;50.602;8.692;2024-02-16T08:52:12;1.10;;;1.10;;
15181;SDS011;7692;50.602;8.692;2024-02-16T08:54:47;1.10;;;1.10;;
15181;SDS011;7692;50.602;8.692;2024-02-16T08:57:43;1.10;;;1.10;;
15181;SDS011;7692;50.602;8.692;2024-02-16T09:00:25;1.00;;;1.00;;
15181;SDS011;7692;50.602;8.692;2024-02-16T09:03:14;1.10;;;1.10;;
15181;SDS011;7692;50.602;8.692;2024-02-16T09:05:56;1.10;;;1.10;;
15181;SDS011;7692;50.602;8.692;2024-02-16T09:08:45;1.20;;;1.20;;
15181;SDS011;7692;50.602;8.692;2024-02-16T09:11:26;1.13;;;1.13;;
15181;SDS011;7692;50.602;8.692;2024-02-16T09:14:21;1.10;;;1.10;;
15181;SDS011;7692;50.602;8.692;2024-02-16T09:17:02;0.90;;;0.90;;
15181;SDS011;7692;50.602;8.692;2024-02-16T09:19:58;1.10;;;1.10;;
15181;SDS011;7692;50.602;8.692;2024-02-16T09:22:36;1.00;;;1.00;;
15181;SDS011;7692;50.602;8.692;2024-02-16T09:25:33;1.20;;;1.20;;
15181;SDS011;7692;50.602;8.692;2024-02-16T09:28:14;1.10;;;1.10;;
15181;SDS011;7692;50.602;8.692;2024-02-16T09:31:09;1.10;;;1.10;;
15181;SDS011;7692;50.602;8.692;2024-02-16T09:33:54;1.10;;;1.10;;
15181;SDS011;7692;50.602;8.692;2024-02-16T09:36:44;0.90;;;0.90;;
15181;SDS011;7692;50.602;8.692;2024-02-16T09:39:27;1.10;;;1.10;;
15181;SDS011;7692;50.602;8.692;2024-02-16T09:42:22;1.20;;;1.20;;
15181;SDS011;7692;50.602;8.692;2024-02-16T09:45:09;0.80;;;0.80;;
15181;SDS011;7692;50.602;8.692;2024-02-16T09:48:11;1.10;;;1.10;;
15181;SDS011;7692;50.602;8.692;2024-02-16T09:50:53;0.80;;;0.80;;
15181;SDS011;7692;50.602;8.692;2024-02-16T09:53:45;0.80;;;0.80;;
15181;SDS011;7692;50.602;8.692;2024-02-16T09:56:27;1.00;;;1.00;;
15181;SDS011;7692;50.602;8.692;2024-02-16T09:59:23;1.20;;;1.20;;
15181;SDS011;7692;50.602;8.692;2024-02-16T10:02:04;1.00;;;1.00;;
15181;SDS011;7692;50.602;8.692;2024-02-16T10:04:52;1.00;;;1.00;;
15181;SDS011;7692;50.602;8.692;2024-02-16T10:07:34;1.00;;;1.00;;
15181;SDS011;7692;50.602;8.692;2024-02-16T10:10:24;0.97;;;0.97;;
15181;SDS011;7692;50.602;8.692;2024-02-16T10:13:07;0.90;;;0.90;;
15181;SDS011;7692;50.602;8.692;2024-02-16T10:16:03;0.90;;;0.90;;
15181;SDS011;7692;50.602;8.692;2024-02-16T10:18:45;0.90;;;0.90;;
15181;SDS011;7692;50.602;8.692;2024-02-16T10:21:40;0.90;;;0.90;;
15181;SDS011;7692;50.602;8.692;2024-02-16T10:24:20;0.90;;;0.90;;
15181;SDS011;7692;50.602;8.692;2024-02-16T10:27:17;0.90;;;0.90;;
15181;SDS011;7692;50.602;8.692;2024-02-16T10:29:53;0.90;;;0.90;;
15181;SDS011;7692;50.602;8.692;2024-02-16T10:32:54;0.90;;;0.90;;
15181;SDS011;7692;50.602;8.692;2024-02-16T10:35:45;0.90;;;0.90;;
15181;SDS011;7692;50.602;8.692;2024-02-16T10:38:28;1.00;;;1.00;;
15181;SDS011;7692;50.602;8.692;2024-02-16T10:41:17;0.90;;;0.90;;
15181;SDS011;7692;50.602;8.692;2024-02-16T10:44:05;1.00;;;1.00;;
15181;SDS011;7692;50.602;8.692;2024-02-16T10:46:53;0.98;;;0.98;;
15181;SDS011;7692;50.602;8.692;2024-02-16T10:49:36;0.90;;;0.90;;
15181;SDS011;7692;50.602;8.692;2024-02-16T10:52:31;0.90;;;0.90;;
15181;SDS011;7692;50.602;8.692;2024-02-16T10:55:13;0.90;;;0.90;;
15181;SDS011;7692;50.602;8.692;2024-02-16T10:58:03;1.00;;;1.00;;
15181;SDS011;7692;50.602;8.692;2024-02-16T11:00:49;0.90;;;0.90;;
15181;SDS011;7692;50.602;8.692;2024-02-16T11:03:38;1.00;;;1.00;;
15181;SDS011;7692;50.602;8.692;2024-02-16T11:06:20;0.95;;;0.95;;
15181;SDS011;7692;50.602;8.692;2024-02-16T11:09:28;0.90;;;0.90;;
15181;SDS011;7692;50.602;8.692;2024-02-16T11:12:03;0.90;;;0.90;;
15181;SDS011;7692;50.602;8.692;2024-02-16T11:15:00;0.90;;;0.90;;
15181;SDS011;7692;50.602;8.692;2024-02-16T11:17:36;0.90;;;0.90;;
15181;SDS011;7692;50.602;8.692;2024-02-16T11:20:36;0.90;;;0.90;;
15181;SDS011;7692;50.602;8.692;2024-02-16T11:23:24;1.00;;;1.00;;
15181;SDS011;7692;50.602;8.692;2024-02-16T11:26:14;0.90;;;0.90;;
15181;SDS011;7692;50.602;8.692;2024-02-16T11:29:00;0.90;;;0.90;;
15181;SDS011;7692;50.602;8.692;2024-02-16T11:31:31;0.90;;;0.90;;
15181;SDS011;7692;50.602;8.692;2024-02-16T11:34:01;0.90;;;0.90;;
15181;SDS011;7692;50.602;8.692;2024-02-16T11:36:30;0.90;;;0.90;;
15181;SDS011;7692;50.602;8.692;2024-02-16T11:38:59;0.90;;;0.90;;
15181;SDS011;7692;50.602;8.692;2024-02-16T11:41:28;0.90;;;0.90;;
15181;SDS011;7692;50.602;8.692;2024-02-16T11:43:58;0.90;;;0.90;;
15181;SDS011;7692;50.602;8.692;2024-02-16T11:46:27;0.90;;;0.90;;
15181;SDS011;7692;50.602;8.692;2024-02-16T11:49:05;0.90;;;0.90;;
15181;SDS011;7692;50.602;8.692;2024-02-16T11:51:33;0.90;;;0.90;;
15181;SDS011;7692;50.602;8.692;2024-02-16T11:54:02;0.80;;;0.80;;
15181;SDS011;7692;50.602;8.692;2024-02-16T11:56:31;0.80;;;0.80;;
15181;SDS011;7692;50.602;8.692;2024-02-16T11:58:59;0.80;;;0.80;;
15181;SDS011;7692;50.602;8.692;2024-02-16T12:01:30;0.80;;;0.80;;
15181;SDS011;7692;50.602;8.692;2024-02-16T12:04:00;0.80;;;0.80;;
15181;SDS011;7692;50.602;8.692;2024-02-16T12:06:30;0.80;;;0.80;;
15181;SDS011;7692;50.602;8.692;2024-02-16T12:08:59;0.80;;;0.80;;
15181;SDS011;7692;50.602;8.692;2024-02-16T12:11:26;0.90;;;0.90;;
15181;SDS011;7692;50.602;8.692;2024-02-16T12:13:55;0.90;;;0.90;;
15181;SDS011;7692;50.602;8.692;2024-02-16T12:16:25;0.80;;;0.80;;
15181;SDS011;7692;50.602;8.692;2024-02-16T12:19:02;0.80;;;0.80;;
15181;SDS011;7692;50.602;8.692;2024-02-16T12:21:34;0.80;;;0.80;;
15181;SDS011;7692;50.602;8.692;2024-02-16T12:24:03;0.90;;;0.90;;
15181;SDS011;7692;50.602;8.692;2024-02-16T12:26:31;0.90;;;0.90;;
15181;SDS011;7692;50.602;8.692;2024-02-16T12:29:00;0.80;;;0.80;;
15181;SDS011;7692;50.602;8.692;2024-02-16T12:31:29;0.90;;;0.90;;
15181;SDS011;7692;50.602;8.692;2024-02-16T12:33:57;0.80;;;0.80;;
15181;SDS011;7692;50.602;8.692;2024-02-16T12:36:26;0.80;;;0.80;;
15181;SDS011;7692;50.602;8.692;2024-02-16T12:38:58;0.80;;;0.80;;
15181;SDS011;7692;50.602;8.692;2024-02-16T12:41:26;0.90;;;0.90;;
15181;SDS011;7692;50.602;8.692;2024-02-16T12:43:55;0.80;;;0.80;;
15181;SDS011;7692;50.602;8.692;2024-02-16T12:46:23;0.88;;;0.88;;
15181;SDS011;7692;50.602;8.692;2024-02-16T12:48:51;0.90;;;0.90;;
15181;SDS011;7692;50.602;8.692;2024-02-16T12:51:20;0.80;;;0.80;;
15181;SDS011;7692;50.602;8.692;2024-02-16T12:53:49;0.90;;;0.90;;
15181;SDS011;7692;50.602;8.692;2024-02-16T12:56:19;0.80;;;0.80;;
15181;SDS011;7692;50.602;8.692;2024-02-16T12:58:47;0.80;;;0.80;;
15181;SDS011;7692;50.602;8.692;2024-02-16T13:01:15;0.75;;;0.75;;
15181;SDS011;7692;50.602;8.692;2024-02-16T13:03:51;0.70;;;0.70;;
15181;SDS011;7692;50.602;8.692;2024-02-16T13:06:19;0.75;;;0.75;;
15181;SDS011;7692;50.602;8.692;2024-02-16T13:08:53;0.80;;;0.80;;
15181;SDS011;7692;50.602;8.692;2024-02-16T13:11:23;0.80;;;0.80;;
15181;SDS011;7692;50.602;8.692;2024-02-16T13:13:52;0.80;;;0.80;;
15181;SDS011;7692;50.602;8.692;2024-02-16T13:16:21;0.70;;;0.70;;
15181;SDS011;7692;50.602;8.692;2024-02-16T13:18:49;0.70;;;0.70;;
15181;SDS011;7692;50.602;8.692;2024-02-16T13:21:17;0.80;;;0.80;;
15181;SDS011;7692;50.602;8.692;2024-02-16T13:23:45;0.80;;;0.80;;
15181;SDS011;7692;50.602;8.692;2024-02-16T13:26:14;0.80;;;0.80;;
15181;SDS011;7692;50.602;8.692;2024-02-16T13:28:44;0.80;;;0.80;;
15181;SDS011;7692;50.602;8.692;2024-02-16T13:31:13;0.80;;;0.80;;
15181;SDS011;7692;50.602;8.692;2024-02-16T13:33:41;0.80;;;0.80;;
15181;SDS011;7692;50.602;8.692;2024-02-16T13:36:09;0.80;;;0.80;;
15181;SDS011;7692;50.602;8.692;2024-02-16T13:38:37;0.90;;;0.90;;
15181;SDS011;7692;50.602;8.692;2024-02-16T13:41:05;0.80;;;0.80;;
15181;SDS011;7692;50.602;8.692;2024-02-16T13:43:33;0.80;;;0.80;;
15181;SDS011;7692;50.602;8.692;2024-02-16T13:46:04;0.75;;;0.75;;
15181;SDS011;7692;50.602;8.692;2024-02-16T13:48:32;0.70;;;0.70;;
15181;SDS011;7692;50.602;8.692;2024-02-16T13:51:03;0.80;;;0.80;;
15181;SDS011;7692;50.602;8.692;2024-02-16T13:53:34;0.80;;;0.80;;
15181;SDS011;7692;50.602;8.692;2024-02-16T13:56:03;0.80;;;0.80;;
15181;SDS011;7692;50.602;8.692;2024-02-16T13:58:33;0.80;;;0.80;;
15181;SDS011;7692;50.602;8.692;2024-02-16T14:01:01;0.80;;;0.80;;
15181;SDS011;7692;50.602;8.692;2024-02-16T14:03:32;0.80;;;0.80;;
15181;SDS011;7692;50.602;8.692;2024-02-16T14:06:03;0.80;;;0.80;;
15181;SDS011;7692;50.602;8.692;2024-02-16T14:08:34;0.80;;;0.80;;
15181;SDS011;7692;50.602;8.692;2024-02-16T14:11:02;0.80;;;0.80;;
15181;SDS011;7692;50.602;8.692;2024-02-16T14:13:30;0.80;;;0.80;;
15181;SDS011;7692;50.602;8.692;2024-02-16T14:15:58;0.80;;;0.80;;
15181;SDS011;7692;50.602;8.692;2024-02-16T14:18:29;0.80;;;0.80;;
15181;SDS011;7692;50.602;8.692;2024-02-16T14:21:01;0.80;;;0.80;;
15181;SDS011;7692;50.602;8.692;2024-02-16T14:23:30;0.80;;;0.80;;
15181;SDS011;7692;50.602;8.692;2024-02-16T14:25:58;0.80;;;0.80;;
15181;SDS011;7692;50.602;8.692;2024-02-16T14:28:27;0.80;;;0.80;;
15181;SDS011;7692;50.602;8.692;2024-02-16T14:30:56;0.80;;;0.80;;
15181;SDS011;7692;50.602;8.692;2024-02-16T14:33:26;0.80;;;0.80;;
15181;SDS011;7692;50.602;8.692;2024-02-16T14:36:00;0.80;;;0.80;;
15181;SDS011;7692;50.602;8.692;2024-02-16T14:38:29;0.90;;;0.90;;
15181;SDS011;7692;50.602;8.692;2024-02-16T14:40:57;0.80;;;0.80;;
15181;SDS011;7692;50.602;8.692;2024-02-16T14:43:32;0.80;;;0.80;;
15181;SDS011;7692;50.602;8.692;2024-02-16T14:46:01;0.80;;;0.80;;
15181;SDS011;7692;50.602;8.692;2024-02-16T14:48:32;0.80;;;0.80;;
15181;SDS011;7692;50.602;8.692;2024-02-16T14:51:00;0.80;;;0.80;;
15181;SDS011;7692;50.602;8.692;2024-02-16T14:53:29;0.90;;;0.90;;
15181;SDS011;7692;50.602;8.692;2024-02-16T14:55:59;0.80;;;0.80;;
15181;SDS011;7692;50.602;8.692;2024-02-16T14:58:29;0.80;;;0.80;;
15181;SDS011;7692;50.602;8.692;2024-02-16T15:00:57;0.80;;;0.80;;
15181;SDS011;7692;50.602;8.692;2024-02-16T15:03:26;0.80;;;0.80;;
15181;SDS011;7692;50.602;8.692;2024-02-16T15:05:58;0.90;;;0.90;;
15181;SDS011;7692;50.602;8.692;2024-02-16T15:08:26;0.90;;;0.90;;
15181;SDS011;7692;50.602;8.692;2024-02-16T15:10:56;0.80;;;0.80;;
15181;SDS011;7692;50.602;8.692;2024-02-16T15:13:24;0.80;;;0.80;;
15181;SDS011;7692;50.602;8.692;2024-02-16T15:15:54;0.80;;;0.80;;
15181;SDS011;7692;50.602;8.692;2024-02-16T15:18:22;0.90;;;0.90;;
15181;SDS011;7692;50.602;8.692;2024-02-16T15:20:51;0.80;;;0.80;;
15181;SDS011;7692;50.602;8.692;2024-02-16T15:23:22;0.88;;;0.88;;
15181;SDS011;7692;50.602;8.692;2024-02-16T15:25:50;0.90;;;0.90;;
15181;SDS011;7692;50.602;8.692;2024-02-16T15:28:18;0.80;;;0.80;;
15181;SDS011;7692;50.602;8.692;2024-02-16T15:30:46;0.80;;;0.80;;
15181;SDS011;7692;50.602;8.692;2024-02-16T15:33:15;0.80;;;0.80;;
15181;SDS011;7692;50.602;8.692;2024-02-16T15:35:47;0.80;;;0.80;;
15181;SDS011;7692;50.602;8.692;2024-02-16T15:38:15;0.80;;;0.80;;
15181;SDS011;7692;50.602;8.692;2024-02-16T15:40:44;0.88;;;0.88;;
15181;SDS011;7692;50.602;8.692;2024-02-16T15:43:13;0.80;;;0.80;;
15181;SDS011;7692;50.602;8.692;2024-02-16T15:45:42;0.80;;;0.80;;
15181;SDS011;7692;50.602;8.692;2024-02-16T15:48:13;0.90;;;0.90;;
15181;SDS011;7692;50.602;8.692;2024-02-16T15:50:43;0.90;;;0.90;;
15181;SDS011;7692;50.602;8.692;2024-02-16T15:53:11;0.90;;;0.90;;
15181;SDS011;7692;50.602;8.692;2024-02-16T15:55:40;0.90;;;0.90;;
15181;SDS011;7692;50.602;8.692;2024-02-16T15:58:10;0.90;;;0.90;;
15181;SDS011;7692;50.602;8.692;2024-02-16T16:00:38;0.80;;;0.80;;
15181;SDS011;7692;50.602;8.692;2024-02-16T16:03:06;0.80;;;0.80;;
15181;SDS011;7692;50.602;8.692;2024-02-16T16:05:37;0.88;;;0.88;;
15181;SDS011;7692;50.602;8.692;2024-02-16T16:08:05;0.90;;;0.90;;
15181;SDS011;7692;50.602;8.692;2024-02-16T16:10:33;0.82;;;0.82;;
15181;SDS011;7692;50.602;8.692;2024-02-16T16:13:02;0.90;;;0.90;;
15181;SDS011;7692;50.602;8.692;2024-02-16T16:15:35;0.90;;;0.90;;
15181;SDS011;7692;50.602;8.692;2024-02-16T16:18:03;0.90;;;0.90;;
15181;SDS011;7692;50.602;8.692;2024-02-16T16:20:31;1.00;;;1.00;;
15181;SDS011;7692;50.602;8.692;2024-02-16T16:23:00;0.90;;;0.90;;
15181;SDS011;7692;50.602;8.692;2024-02-16T16:25:28;0.90;;;0.90;;
15181;SDS011;7692;50.602;8.692;2024-02-16T16:27:56;0.90;;;0.90;;